createdAt,value
2023-05-20T00:00:36.053Z,38.26
2023-05-20T00:03:25.266Z,38.30
2023-05-20T00:06:14.132Z,38.41
2023-05-20T00:09:03.387Z,38.53
2023-05-20T00:11:53.418Z,38.35
2023-05-20T00:14:42.049Z,38.34
2023-05-20T00:17:30.764Z,38.21
2023-05-20T00:20:19.624Z,38.30
2023-05-20T00:23:08.359Z,38.76
2023-05-20T00:25:59.125Z,39.02
2023-05-20T00:28:50.599Z,38.50
2023-05-20T00:31:39.436Z,38.82
2023-05-20T00:34:28.128Z,38.46
2023-05-20T00:37:16.767Z,38.36
2023-05-20T00:40:05.791Z,38.95
2023-05-20T00:42:54.682Z,38.94
2023-05-20T00:45:44.770Z,38.99
2023-05-20T00:48:42.245Z,39.31
2023-05-20T00:51:31.046Z,39.17
2023-05-20T00:54:20.668Z,39.00
2023-05-20T00:57:11.030Z,39.24
2023-05-20T01:00:00.023Z,38.73
2023-05-20T01:02:50.504Z,38.97
2023-05-20T01:05:42.273Z,39.26
2023-05-20T01:08:32.297Z,39.03
2023-05-20T01:11:27.248Z,39.11
2023-05-20T01:14:19.911Z,39.00
2023-05-20T01:17:12.646Z,39.25
2023-05-20T01:20:04.220Z,39.11
2023-05-20T01:22:57.647Z,38.97
2023-05-20T01:25:46.342Z,39.27
2023-05-20T01:28:35.540Z,39.32
2023-05-20T01:31:27.793Z,39.20
2023-05-20T01:34:17.008Z,39.17
2023-05-20T01:37:06.919Z,39.06
2023-05-20T01:39:58.068Z,39.46
2023-05-20T01:42:52.893Z,39.23
2023-05-20T01:45:43.395Z,39.05
2023-05-20T01:48:32.092Z,39.17
2023-05-20T01:51:20.971Z,39.41
2023-05-20T01:54:10.887Z,39.09
2023-05-20T01:57:01.561Z,39.08
2023-05-20T01:59:50.425Z,38.89
2023-05-20T02:02:39.167Z,39.00
2023-05-20T02:05:27.956Z,39.35
2023-05-20T02:08:16.611Z,38.81
2023-05-20T02:11:05.615Z,39.25
2023-05-20T02:13:55.629Z,38.95
2023-05-20T02:16:44.252Z,39.27
2023-05-20T02:19:32.978Z,39.18
2023-05-20T02:22:21.670Z,39.04
2023-05-20T02:25:11.587Z,39.11
2023-05-20T02:28:00.391Z,38.93
2023-05-20T02:30:51.124Z,39.48
2023-05-20T02:33:39.851Z,39.18
2023-05-20T02:36:28.944Z,39.15
2023-05-20T02:39:17.600Z,38.95
2023-05-20T02:42:06.605Z,39.20
2023-05-20T02:44:58.443Z,39.17
2023-05-20T02:47:49.792Z,39.33
2023-05-20T02:50:40.986Z,38.76
2023-05-20T02:53:29.686Z,38.81
2023-05-20T02:56:21.524Z,38.82
2023-05-20T02:59:10.207Z,39.08
2023-05-20T03:02:01.353Z,39.18
2023-05-20T03:04:53.927Z,38.83
2023-05-20T03:07:42.648Z,39.19
2023-05-20T03:10:31.320Z,39.06
2023-05-20T03:13:19.966Z,39.05
2023-05-20T03:16:08.845Z,39.09
2023-05-20T03:18:57.631Z,39.13
2023-05-20T03:21:47.676Z,38.94
2023-05-20T03:24:36.334Z,38.84
2023-05-20T03:27:26.611Z,38.93
2023-05-20T03:30:15.536Z,38.87
2023-05-20T03:33:06.039Z,39.29
2023-05-20T03:35:54.800Z,38.78
2023-05-20T03:38:45.027Z,39.15
2023-05-20T03:41:34.697Z,39.19
2023-05-20T03:44:23.301Z,39.05
2023-05-20T03:47:13.077Z,39.22
2023-05-20T03:50:01.793Z,38.91
2023-05-20T03:52:51.566Z,39.43
2023-05-20T03:55:41.596Z,39.32
2023-05-20T03:58:31.265Z,39.23
2023-05-20T04:01:21.501Z,39.56
2023-05-20T04:04:10.334Z,39.19
2023-05-20T04:07:00.585Z,39.48
2023-05-20T04:09:49.264Z,39.70
2023-05-20T04:12:39.503Z,39.62
2023-05-20T04:15:29.704Z,39.35
2023-05-20T04:18:19.153Z,39.16
2023-05-20T04:21:08.279Z,39.73
2023-05-20T04:23:57.012Z,39.48
2023-05-20T04:26:45.663Z,39.33
2023-05-20T04:29:35.701Z,39.41
2023-05-20T04:32:24.411Z,39.51
2023-05-20T04:35:13.878Z,39.18
2023-05-20T04:38:03.085Z,39.57
2023-05-20T04:40:51.750Z,39.19
2023-05-20T04:43:44.030Z,39.63
2023-05-20T04:46:36.683Z,39.82
2023-05-20T04:49:25.917Z,39.40
2023-05-20T04:52:14.568Z,39.76
2023-05-20T04:55:03.689Z,39.57
2023-05-20T04:57:52.361Z,39.80
2023-05-20T05:00:40.973Z,39.56
2023-05-20T05:03:31.424Z,39.38
2023-05-20T05:06:21.354Z,39.87
2023-05-20T05:09:10.169Z,39.58
2023-05-20T05:11:58.820Z,39.75
2023-05-20T05:14:47.474Z,39.92
2023-05-20T05:17:36.695Z,39.30
2023-05-20T05:20:26.799Z,39.62
2023-05-20T05:23:15.495Z,39.99
2023-05-20T05:26:04.247Z,39.57
2023-05-20T05:28:52.876Z,39.37
2023-05-20T05:31:41.587Z,39.82
2023-05-20T05:34:30.222Z,39.57
2023-05-20T05:37:21.220Z,39.62
2023-05-20T05:40:10.838Z,39.81
2023-05-20T05:42:59.538Z,39.96
2023-05-20T05:45:48.187Z,39.88
2023-05-20T05:48:37.966Z,39.46
2023-05-20T05:51:27.946Z,40.00
2023-05-20T05:54:17.965Z,39.85
2023-05-20T05:57:07.810Z,39.55
2023-05-20T05:59:56.469Z,39.85
2023-05-20T06:02:45.359Z,39.90
2023-05-20T06:05:34.599Z,39.71
2023-05-20T06:08:23.550Z,39.60
2023-05-20T06:11:13.538Z,40.07
2023-05-20T06:14:02.863Z,40.22
2023-05-20T06:16:51.543Z,39.97
2023-05-20T06:19:40.492Z,40.13
2023-05-20T06:22:29.278Z,39.96
2023-05-20T06:25:18.039Z,40.42
2023-05-20T06:28:08.321Z,40.53
2023-05-20T06:30:57.426Z,40.23
2023-05-20T06:33:46.152Z,39.98
2023-05-20T06:36:35.037Z,40.22
2023-05-20T06:39:24.873Z,39.74
2023-05-20T06:42:13.530Z,40.08
2023-05-20T06:45:03.730Z,39.94
2023-05-20T06:47:54.204Z,40.30
2023-05-20T06:50:42.976Z,40.04
2023-05-20T06:53:31.627Z,40.33
2023-05-20T06:56:20.225Z,40.16
2023-05-20T06:59:08.862Z,40.08
2023-05-20T07:01:58.895Z,40.10
2023-05-20T07:04:47.640Z,39.92
2023-05-20T07:07:36.439Z,40.04
2023-05-20T07:10:25.116Z,40.01
2023-05-20T07:13:14.934Z,40.60
2023-05-20T07:16:03.617Z,40.18
2023-05-20T07:18:53.787Z,39.95
2023-05-20T07:21:42.818Z,40.38
2023-05-20T07:24:31.521Z,40.38
2023-05-20T07:27:20.251Z,40.51
2023-05-20T07:30:09.907Z,40.50
2023-05-20T07:32:58.596Z,40.38
2023-05-20T07:38:38.525Z,40.86
2023-05-20T07:41:31.882Z,40.18
2023-05-20T07:44:22.176Z,40.41
2023-05-20T07:47:10.808Z,40.57
2023-05-20T07:49:59.552Z,40.47
2023-05-20T07:52:56.564Z,40.60
2023-05-20T07:55:47.146Z,40.27
2023-05-20T07:58:36.124Z,40.67
2023-05-20T08:01:24.768Z,40.66
2023-05-20T08:04:13.791Z,40.20
2023-05-20T08:07:02.934Z,40.32
2023-05-20T08:09:53.058Z,40.35
2023-05-20T08:12:41.727Z,40.57
2023-05-20T08:15:30.597Z,40.36
2023-05-20T08:18:19.240Z,40.66
2023-05-20T08:21:08.959Z,40.40
2023-05-20T08:24:00.029Z,40.35
2023-05-20T08:26:50.022Z,40.68
2023-05-20T08:29:38.731Z,40.72
2023-05-20T08:32:27.488Z,40.79
2023-05-20T08:35:16.190Z,40.76
2023-05-20T08:38:04.869Z,40.74
2023-05-20T08:40:54.289Z,40.75
2023-05-20T08:43:47.433Z,40.93
2023-05-20T08:46:37.509Z,40.87
2023-05-20T08:49:26.290Z,40.72
2023-05-20T08:52:15.753Z,40.73
2023-05-20T08:55:07.814Z,40.33
2023-05-20T08:57:57.182Z,41.05
2023-05-20T09:00:47.298Z,40.83
2023-05-20T09:03:36.042Z,40.37
2023-05-20T09:06:24.814Z,39.84
2023-05-20T09:09:14.000Z,39.42
2023-05-20T09:12:03.301Z,39.05
2023-05-20T09:14:52.200Z,39.09
2023-05-20T09:17:42.353Z,38.89
2023-05-20T09:20:31.771Z,38.74
2023-05-20T09:23:22.149Z,38.47
2023-05-20T09:26:11.034Z,38.48
2023-05-20T09:28:59.876Z,38.34
2023-05-20T09:31:48.872Z,38.10
2023-05-20T09:34:39.751Z,38.41
2023-05-20T09:37:30.446Z,38.63
2023-05-20T09:40:21.182Z,38.19
2023-05-20T09:43:11.455Z,38.24
2023-05-20T09:46:00.940Z,38.00
2023-05-20T09:48:50.651Z,38.34
2023-05-20T09:51:43.515Z,38.47
2023-05-20T09:54:33.516Z,38.11
2023-05-20T09:57:22.224Z,38.31
2023-05-20T10:00:13.734Z,38.14
2023-05-20T10:03:02.778Z,38.06
2023-05-20T10:06:06.709Z,38.49
2023-05-20T10:09:12.467Z,38.12
2023-05-20T10:12:14.045Z,38.02
2023-05-20T10:15:12.256Z,38.75
2023-05-20T10:18:13.089Z,38.34
2023-05-20T10:21:02.151Z,38.63
2023-05-20T10:23:50.863Z,38.76
2023-05-20T10:26:45.264Z,39.61
2023-05-20T10:29:45.075Z,39.74
2023-05-20T10:32:35.968Z,39.51
2023-05-20T10:35:27.231Z,39.73
2023-05-20T10:38:15.906Z,39.75
2023-05-20T10:41:11.353Z,39.29
2023-05-20T10:44:05.434Z,39.72
2023-05-20T10:47:24.705Z,39.43
2023-05-20T10:50:29.014Z,39.79
2023-05-20T10:53:29.746Z,39.77
2023-05-20T10:56:25.091Z,39.95
2023-05-20T10:59:15.781Z,39.84
2023-05-20T11:02:05.068Z,39.98
2023-05-20T11:04:54.420Z,39.68
2023-05-20T11:07:43.118Z,39.89
2023-05-20T11:10:32.863Z,39.92
2023-05-20T11:13:22.323Z,39.93
2023-05-20T11:16:12.456Z,39.76
2023-05-20T11:19:01.182Z,40.10
2023-05-20T11:21:50.388Z,39.83
2023-05-20T11:24:47.868Z,40.06
2023-05-20T11:27:37.254Z,39.94
2023-05-20T11:30:27.543Z,40.14
2023-05-20T11:33:18.806Z,40.37
2023-05-20T11:36:13.488Z,40.23
2023-05-20T11:39:16.110Z,40.55
2023-05-20T11:42:06.020Z,40.43
2023-05-20T11:44:54.750Z,40.16
2023-05-20T11:47:46.895Z,40.49
2023-05-20T11:50:39.736Z,40.04
2023-05-20T11:53:28.700Z,39.81
2023-05-20T11:56:17.406Z,39.71
2023-05-20T11:59:07.146Z,39.51
2023-05-20T12:01:55.915Z,39.61
2023-05-20T12:04:44.724Z,40.06
2023-05-20T12:07:34.818Z,39.87
2023-05-20T12:10:23.570Z,40.05
2023-05-20T12:13:13.556Z,39.49
2023-05-20T12:16:02.338Z,39.08
2023-05-20T12:18:51.174Z,38.87
2023-05-20T12:21:39.902Z,39.37
2023-05-20T12:24:29.847Z,39.78
2023-05-20T12:27:18.727Z,39.52
2023-05-20T12:30:09.875Z,39.37
2023-05-20T12:32:58.600Z,39.51
2023-05-20T12:35:47.235Z,39.76
2023-05-20T12:38:36.096Z,39.68
2023-05-20T12:41:26.178Z,39.67
2023-05-20T12:44:14.932Z,39.77
2023-05-20T12:47:03.959Z,40.02
2023-05-20T12:49:52.769Z,39.84
2023-05-20T12:52:41.706Z,39.75
2023-05-20T12:55:30.623Z,39.66
2023-05-20T12:58:20.671Z,39.62
2023-05-20T13:01:09.362Z,39.63
2023-05-20T13:03:58.093Z,39.54
2023-05-20T13:06:46.839Z,39.33
2023-05-20T13:09:35.593Z,39.27
2023-05-20T13:12:26.253Z,39.45
2023-05-20T13:15:16.341Z,39.54
2023-05-20T13:18:06.791Z,39.82
2023-05-20T13:20:55.953Z,39.76
2023-05-20T13:23:49.786Z,39.92
2023-05-20T13:26:38.508Z,39.61
2023-05-20T13:29:27.180Z,39.72
2023-05-20T13:32:17.742Z,39.59
2023-05-20T13:35:10.682Z,39.90
2023-05-20T13:37:59.322Z,39.83
2023-05-20T13:40:48.953Z,39.49
2023-05-20T13:43:37.603Z,39.44
2023-05-20T13:46:26.613Z,39.55
2023-05-20T13:49:16.897Z,39.76
2023-05-20T13:52:06.058Z,39.76
2023-05-20T13:54:54.758Z,39.61
2023-05-20T13:57:44.593Z,39.53
2023-05-20T14:00:35.341Z,39.58
2023-05-20T14:03:29.610Z,39.47
2023-05-20T14:06:19.975Z,39.87
2023-05-20T14:09:09.994Z,39.59
2023-05-20T14:11:58.658Z,39.54
2023-05-20T14:14:47.369Z,39.62
2023-05-20T14:17:36.054Z,39.32
2023-05-20T14:20:25.420Z,39.12
2023-05-20T14:23:15.466Z,39.22
2023-05-20T14:26:04.324Z,39.37
2023-05-20T14:28:53.207Z,39.14
2023-05-20T14:31:41.928Z,39.19
2023-05-20T14:34:30.717Z,39.29
2023-05-20T14:37:19.406Z,39.62
2023-05-20T14:40:10.750Z,39.41
2023-05-20T14:42:59.358Z,39.47
2023-05-20T14:45:48.959Z,39.36
2023-05-20T14:48:37.665Z,39.29
2023-05-20T14:51:26.269Z,39.19
2023-05-20T14:54:15.686Z,39.21
2023-05-20T14:57:06.849Z,39.30
2023-05-20T14:59:55.803Z,39.17
2023-05-20T15:02:44.498Z,38.87
2023-05-20T15:05:33.517Z,38.95
2023-05-20T15:08:24.246Z,39.22
2023-05-20T15:11:12.890Z,39.09
2023-05-20T15:14:03.013Z,39.01
2023-05-20T15:16:51.814Z,39.00
2023-05-20T15:19:41.800Z,39.23
2023-05-20T15:22:31.239Z,39.04
2023-05-20T15:25:20.239Z,39.19
2023-05-20T15:28:08.877Z,39.36
2023-05-20T15:30:58.936Z,39.50
2023-05-20T15:33:47.730Z,39.93
2023-05-20T15:36:36.560Z,39.58
2023-05-20T15:39:26.138Z,39.55
2023-05-20T15:42:18.322Z,39.54
2023-05-20T15:45:08.138Z,39.58
2023-05-20T15:47:58.356Z,39.57
2023-05-20T15:50:47.035Z,39.41
2023-05-20T15:53:35.987Z,39.50
2023-05-20T15:56:25.049Z,39.41
2023-05-20T15:59:13.643Z,39.21
2023-05-20T16:02:02.393Z,39.71
2023-05-20T16:04:52.668Z,39.87
2023-05-20T16:07:41.692Z,39.74
2023-05-20T16:10:32.616Z,40.09
2023-05-20T16:13:21.613Z,39.79
2023-05-20T16:16:12.799Z,39.99
2023-05-20T16:19:02.219Z,40.05
2023-05-20T16:21:52.881Z,39.88
2023-05-20T16:24:41.929Z,40.06
2023-05-20T16:27:30.990Z,40.11
2023-05-20T16:30:20.927Z,40.12
2023-05-20T16:33:09.633Z,40.09
2023-05-20T16:35:58.424Z,39.82
2023-05-20T16:38:49.724Z,39.88
2023-05-20T16:41:38.486Z,39.81
2023-05-20T16:44:27.141Z,40.10
2023-05-20T16:47:16.260Z,40.12
2023-05-20T16:50:05.451Z,40.13
2023-05-20T16:52:55.534Z,40.20
2023-05-20T16:55:46.076Z,40.46
2023-05-20T16:58:34.795Z,40.69
2023-05-20T17:01:23.868Z,40.25
2023-05-20T17:04:12.737Z,40.15
2023-05-20T17:07:02.185Z,40.25
2023-05-20T17:09:51.059Z,40.23
2023-05-20T17:12:41.172Z,40.18
2023-05-20T17:15:29.949Z,39.93
2023-05-20T17:18:18.663Z,40.04
2023-05-20T17:21:07.497Z,39.76
2023-05-20T17:23:56.274Z,39.95
2023-05-20T17:26:44.977Z,39.99
2023-05-20T17:29:35.002Z,39.77
2023-05-20T17:32:23.705Z,39.74
2023-05-20T17:35:12.330Z,39.89
2023-05-20T17:38:01.392Z,40.04
2023-05-20T17:40:50.575Z,39.81
2023-05-20T17:43:39.172Z,39.94
2023-05-20T17:46:29.226Z,40.13
2023-05-20T17:49:17.909Z,39.78
2023-05-20T17:52:07.356Z,40.03
2023-05-20T17:54:56.157Z,39.85
2023-05-20T17:57:44.852Z,40.03
2023-05-20T18:00:34.647Z,39.90
2023-05-20T18:03:25.168Z,40.27
2023-05-20T18:06:14.046Z,40.16
2023-05-20T18:09:04.598Z,40.12
2023-05-20T18:11:53.709Z,40.16
2023-05-20T18:14:42.579Z,40.16
2023-05-20T18:17:31.371Z,40.82
2023-05-20T18:20:21.676Z,40.53
2023-05-20T18:23:10.487Z,40.45
2023-05-20T18:25:59.145Z,40.63
2023-05-20T18:28:48.058Z,40.94
2023-05-20T18:31:37.073Z,40.99
2023-05-20T18:34:25.719Z,41.20
2023-05-20T18:37:15.737Z,41.08
2023-05-20T18:40:06.445Z,40.74
2023-05-20T18:42:55.292Z,41.06
2023-05-20T18:45:44.167Z,41.15
2023-05-20T18:48:32.883Z,40.82
2023-05-20T18:51:22.130Z,40.92
2023-05-20T18:54:12.295Z,41.04
2023-05-20T18:57:04.903Z,41.29
2023-05-20T18:59:53.805Z,41.28
2023-05-20T19:02:44.399Z,41.32
2023-05-20T19:05:33.192Z,41.43
2023-05-20T19:08:23.200Z,41.14
2023-05-20T19:11:13.283Z,41.52
2023-05-20T19:14:01.963Z,41.49
2023-05-20T19:16:50.738Z,41.21
2023-05-20T19:19:39.490Z,41.40
2023-05-20T19:22:28.192Z,41.44
2023-05-20T19:25:16.982Z,41.33
2023-05-20T19:28:07.177Z,41.09
2023-05-20T19:30:55.908Z,41.65
2023-05-20T19:33:44.548Z,41.47
2023-05-20T19:36:34.721Z,41.50
2023-05-20T19:39:23.630Z,41.53
2023-05-20T19:42:12.449Z,41.54
2023-05-20T19:45:02.710Z,41.90
2023-05-20T19:47:51.675Z,42.16
2023-05-20T19:50:40.389Z,42.34
2023-05-20T19:53:28.987Z,42.30
2023-05-20T19:56:20.074Z,42.40
2023-05-20T19:59:08.909Z,42.15
2023-05-20T20:02:02.805Z,42.43
2023-05-20T20:04:51.923Z,42.38
2023-05-20T20:07:40.789Z,42.26
2023-05-20T20:10:31.496Z,42.39
2023-05-20T20:13:20.133Z,42.24
2023-05-20T20:16:08.953Z,42.23
2023-05-20T20:18:59.021Z,42.37
2023-05-20T20:21:48.593Z,42.06
2023-05-20T20:24:37.445Z,42.12
2023-05-20T20:27:26.410Z,42.46
2023-05-20T20:30:16.124Z,42.21
2023-05-20T20:33:07.065Z,41.83
2023-05-20T20:35:58.330Z,42.28
2023-05-20T20:38:47.705Z,42.21
2023-05-20T20:41:38.635Z,42.17
2023-05-20T20:44:29.179Z,42.33
2023-05-20T20:47:17.886Z,42.31
2023-05-20T20:50:08.993Z,42.39
2023-05-20T20:52:59.147Z,42.16
2023-05-20T20:55:47.838Z,42.26
2023-05-20T20:58:37.470Z,42.25
2023-05-20T21:01:26.280Z,42.19
2023-05-20T21:04:17.273Z,42.33
2023-05-20T21:07:07.672Z,42.08
2023-05-20T21:09:57.790Z,42.33
2023-05-20T21:12:46.416Z,42.23
2023-05-20T21:15:35.470Z,42.34
2023-05-20T21:18:26.088Z,42.38
2023-05-20T21:21:16.581Z,42.23
2023-05-20T21:24:05.548Z,42.26
2023-05-20T21:26:55.638Z,41.93
2023-05-20T21:29:44.277Z,42.10
2023-05-20T21:32:33.529Z,41.92
2023-05-20T21:35:22.205Z,41.88
2023-05-20T21:38:13.398Z,41.95
2023-05-20T21:41:02.106Z,41.90
2023-05-20T21:43:52.208Z,42.24
2023-05-20T21:46:41.498Z,41.94
2023-05-20T21:49:30.208Z,41.99
2023-05-20T21:52:18.892Z,42.21
2023-05-20T21:55:08.761Z,41.89
2023-05-20T21:57:57.707Z,41.97
2023-05-20T22:00:47.773Z,41.81
2023-05-20T22:03:36.910Z,42.09
2023-05-20T22:06:25.860Z,41.89
2023-05-20T22:09:14.915Z,42.07
2023-05-20T22:12:03.893Z,42.31
2023-05-20T22:14:52.568Z,41.88
2023-05-20T22:17:43.463Z,42.14
2023-05-20T22:20:33.734Z,41.99
2023-05-20T22:23:22.631Z,41.81
2023-05-20T22:26:11.239Z,41.89
2023-05-20T22:28:59.879Z,42.07
2023-05-20T22:31:49.564Z,42.28
2023-05-20T22:34:39.636Z,42.31
2023-05-20T22:37:29.974Z,41.97
2023-05-20T22:40:18.843Z,42.30
2023-05-20T22:43:07.532Z,42.15
2023-05-20T22:45:56.192Z,42.02
2023-05-20T22:48:45.229Z,42.10
2023-05-20T22:51:36.519Z,42.27
2023-05-20T22:54:25.165Z,41.94
2023-05-20T22:57:13.888Z,41.85
2023-05-20T23:00:02.855Z,42.20
2023-05-20T23:02:52.405Z,42.13
2023-05-20T23:05:42.315Z,42.21
2023-05-20T23:08:32.389Z,42.07
2023-05-20T23:11:21.520Z,42.23
2023-05-20T23:14:10.102Z,42.32
2023-05-20T23:16:58.792Z,42.14
2023-05-20T23:19:47.422Z,42.31
2023-05-20T23:22:36.084Z,41.92
2023-05-20T23:25:26.182Z,42.11
2023-05-20T23:28:14.927Z,42.21
2023-05-20T23:31:03.664Z,42.18
2023-05-20T23:33:52.679Z,42.31
2023-05-20T23:36:42.179Z,41.95
2023-05-20T23:39:30.885Z,42.08
2023-05-20T23:42:20.848Z,42.37
2023-05-20T23:45:10.522Z,42.21
2023-05-20T23:48:01.112Z,41.95
2023-05-20T23:50:50.048Z,41.86
2023-05-20T23:53:38.622Z,42.12
2023-05-20T23:56:27.258Z,41.85
2023-05-20T23:59:17.339Z,42.31
